createdAt,value
2018-12-11T00:00:51.943Z,0.00
2018-12-11T00:01:52.089Z,0.00
2018-12-11T00:02:52.234Z,0.00
2018-12-11T00:03:52.380Z,0.00
2018-12-11T00:04:52.524Z,0.00
2018-12-11T00:05:52.672Z,0.00
2018-12-11T00:06:52.815Z,0.00
2018-12-11T00:07:52.959Z,0.00
2018-12-11T00:08:53.108Z,0.00
2018-12-11T00:09:53.283Z,0.00
2018-12-11T00:10:53.421Z,0.00
2018-12-11T00:11:53.566Z,0.00
2018-12-11T00:12:53.709Z,0.00
2018-12-11T00:13:53.853Z,0.00
2018-12-11T00:14:54.000Z,0.00
2018-12-11T00:15:54.146Z,0.00
2018-12-11T00:16:54.288Z,0.00
2018-12-11T00:17:54.435Z,0.00
2018-12-11T00:18:54.577Z,0.00
2018-12-11T00:19:54.719Z,0.00
2018-12-11T00:20:54.864Z,0.00
2018-12-11T00:21:55.010Z,0.00
2018-12-11T00:22:55.155Z,0.00
2018-12-11T00:23:55.298Z,0.00
2018-12-11T00:24:55.445Z,0.00
2018-12-11T00:25:55.592Z,0.00
2018-12-11T00:26:55.737Z,0.00
2018-12-11T00:27:55.880Z,0.00
2018-12-11T00:28:56.024Z,0.00
2018-12-11T00:29:56.167Z,0.00
2018-12-11T00:30:56.313Z,0.00
2018-12-11T00:31:56.458Z,0.00
2018-12-11T00:32:56.604Z,0.00
2018-12-11T00:33:56.750Z,0.00
2018-12-11T00:34:56.895Z,0.00
2018-12-11T00:35:57.039Z,0.00
2018-12-11T00:36:57.189Z,0.00
2018-12-11T00:37:57.331Z,0.00
2018-12-11T00:38:57.480Z,0.00
2018-12-11T00:39:57.622Z,0.00
2018-12-11T00:40:57.765Z,0.00
2018-12-11T00:41:57.915Z,0.00
2018-12-11T00:42:58.057Z,0.00
2018-12-11T00:43:58.201Z,0.00
2018-12-11T00:44:58.347Z,0.00
2018-12-11T00:45:58.493Z,0.00
2018-12-11T00:46:58.637Z,0.00
2018-12-11T00:47:58.783Z,0.00
2018-12-11T00:48:58.928Z,0.00
2018-12-11T00:49:59.074Z,0.00
2018-12-11T00:50:59.219Z,0.00
2018-12-11T00:51:59.363Z,0.00
2018-12-11T00:52:59.511Z,0.00
2018-12-11T00:53:59.650Z,0.00
2018-12-11T00:54:59.797Z,0.00
2018-12-11T00:55:59.943Z,0.00
2018-12-11T00:57:00.092Z,0.00
2018-12-11T00:58:00.233Z,0.00
2018-12-11T00:59:00.377Z,0.00
2018-12-11T01:00:00.521Z,0.00
2018-12-11T01:01:00.668Z,0.00
2018-12-11T01:02:00.810Z,0.00
2018-12-11T01:03:00.956Z,0.00
2018-12-11T01:04:01.135Z,0.00
2018-12-11T01:05:01.244Z,0.00
2018-12-11T01:06:01.389Z,0.00
2018-12-11T01:07:01.534Z,0.00
2018-12-11T01:08:01.680Z,0.00
2018-12-11T01:09:01.825Z,0.00
2018-12-11T01:10:01.970Z,0.00
2018-12-11T01:11:02.115Z,0.00
2018-12-11T01:12:02.260Z,0.00
2018-12-11T01:13:02.412Z,0.00
2018-12-11T01:14:02.549Z,0.00
2018-12-11T01:15:02.694Z,0.00
2018-12-11T01:16:02.838Z,0.00
2018-12-11T01:17:02.982Z,0.00
2018-12-11T01:18:03.127Z,0.00
2018-12-11T01:19:03.273Z,0.00
2018-12-11T01:20:03.417Z,0.00
2018-12-11T01:21:03.562Z,0.00
2018-12-11T01:22:03.707Z,0.00
2018-12-11T01:23:03.853Z,0.00
2018-12-11T01:24:03.998Z,0.00
2018-12-11T01:25:04.137Z,0.00
2018-12-11T01:26:04.283Z,0.00
2018-12-11T01:27:04.429Z,0.00
2018-12-11T01:28:04.572Z,0.00
2018-12-11T01:29:04.720Z,0.00
2018-12-11T01:30:04.861Z,0.00
2018-12-11T01:31:05.008Z,0.00
2018-12-11T01:32:05.153Z,0.00
2018-12-11T01:33:05.297Z,0.00
2018-12-11T01:34:05.441Z,0.00
2018-12-11T01:35:05.588Z,0.00
2018-12-11T01:36:05.732Z,0.00
2018-12-11T01:37:05.877Z,0.00
2018-12-11T01:38:06.023Z,0.00
2018-12-11T01:39:06.167Z,0.00
2018-12-11T01:40:06.311Z,0.00
2018-12-11T01:41:06.458Z,0.00
2018-12-11T01:42:06.603Z,0.00
2018-12-11T01:43:06.748Z,0.00
2018-12-11T01:44:06.892Z,0.00
2018-12-11T01:45:07.036Z,0.00
2018-12-11T01:46:07.181Z,0.00
2018-12-11T01:47:07.325Z,0.00
2018-12-11T01:48:07.472Z,0.00
2018-12-11T01:49:07.622Z,0.00
2018-12-11T01:50:07.759Z,0.00
2018-12-11T01:51:07.904Z,0.00
2018-12-11T01:52:08.047Z,0.00
2018-12-11T01:53:08.192Z,0.00
2018-12-11T01:54:08.338Z,0.00
2018-12-11T01:55:08.482Z,0.00
2018-12-11T01:56:08.628Z,0.00
2018-12-11T01:57:08.774Z,0.00
2018-12-11T01:58:08.923Z,0.00
2018-12-11T01:59:09.064Z,0.00
2018-12-11T02:00:09.217Z,0.00
2018-12-11T02:01:09.354Z,0.00
2018-12-11T02:02:09.495Z,0.00
2018-12-11T02:03:09.644Z,0.00
2018-12-11T02:04:09.789Z,0.00
2018-12-11T02:05:09.933Z,0.00
2018-12-11T02:06:10.077Z,0.00
2018-12-11T02:07:10.224Z,0.00
2018-12-11T02:08:10.369Z,0.00
2018-12-11T02:09:10.517Z,0.00
2018-12-11T02:10:10.663Z,0.00
2018-12-11T02:11:10.808Z,0.00
2018-12-11T02:12:10.952Z,0.00
2018-12-11T02:13:11.096Z,0.00
2018-12-11T02:14:11.242Z,0.00
2018-12-11T02:15:11.973Z,0.00
2018-12-11T02:16:11.537Z,0.00
2018-12-11T02:17:11.676Z,0.00
2018-12-11T02:18:11.824Z,0.00
2018-12-11T02:19:11.965Z,0.00
2018-12-11T02:20:12.109Z,0.00
2018-12-11T02:21:12.361Z,0.00
2018-12-11T02:22:12.400Z,0.00
2018-12-11T02:23:12.544Z,0.00
2018-12-11T02:24:12.689Z,0.00
2018-12-11T02:25:12.835Z,0.00
2018-12-11T02:26:12.979Z,0.00
2018-12-11T02:27:13.125Z,0.00
2018-12-11T02:28:13.268Z,0.00
2018-12-11T02:29:13.415Z,0.00
2018-12-11T02:30:13.560Z,0.00
2018-12-11T02:31:13.705Z,0.00
2018-12-11T02:32:13.849Z,0.00
2018-12-11T02:33:13.995Z,0.00
2018-12-11T02:34:14.138Z,0.00
2018-12-11T02:35:14.282Z,0.00
2018-12-11T02:36:14.429Z,0.00
2018-12-11T02:37:14.580Z,0.00
2018-12-11T02:38:14.719Z,0.00
2018-12-11T02:39:14.859Z,0.00
2018-12-11T02:40:15.007Z,0.00
2018-12-11T02:41:15.152Z,0.00
2018-12-11T02:42:15.292Z,0.00
2018-12-11T02:43:15.434Z,0.00
2018-12-11T02:44:15.581Z,0.00
2018-12-11T02:45:15.726Z,0.00
2018-12-11T02:46:15.871Z,0.00
2018-12-11T02:47:16.017Z,0.00
2018-12-11T02:48:16.178Z,0.00
2018-12-11T02:49:16.304Z,0.00
2018-12-11T02:50:16.456Z,0.00
2018-12-11T02:51:16.593Z,0.00
2018-12-11T02:52:16.736Z,0.00
2018-12-11T02:53:16.882Z,0.00
2018-12-11T02:54:17.025Z,0.00
2018-12-11T02:55:17.168Z,0.00
2018-12-11T02:56:17.314Z,0.00
2018-12-11T02:57:17.471Z,0.00
2018-12-11T02:58:17.603Z,0.00
2018-12-11T02:59:17.747Z,0.00
2018-12-11T03:00:17.895Z,0.00
2018-12-11T03:01:18.038Z,0.00
2018-12-11T03:02:18.188Z,0.00
2018-12-11T03:03:18.331Z,0.00
2018-12-11T03:04:18.478Z,0.00
2018-12-11T03:05:18.621Z,0.00
2018-12-11T03:06:18.769Z,0.00
2018-12-11T03:07:18.916Z,0.00
2018-12-11T03:08:19.057Z,0.00
2018-12-11T03:09:19.199Z,0.00
2018-12-11T03:10:19.345Z,0.00
2018-12-11T03:11:19.489Z,0.00
2018-12-11T03:12:19.635Z,0.00
2018-12-11T03:13:19.779Z,0.00
2018-12-11T03:14:19.925Z,0.00
2018-12-11T03:15:20.073Z,0.00
2018-12-11T03:16:20.216Z,0.00
2018-12-11T03:17:20.358Z,0.00
2018-12-11T03:18:20.504Z,0.00
2018-12-11T03:19:20.651Z,0.00
2018-12-11T03:20:20.797Z,0.00
2018-12-11T03:21:20.943Z,0.00
2018-12-11T03:22:21.086Z,0.00
2018-12-11T03:23:21.231Z,0.00
2018-12-11T03:24:21.387Z,0.00
2018-12-11T03:25:21.518Z,0.00
2018-12-11T03:26:21.663Z,0.00
2018-12-11T03:27:21.808Z,0.00
2018-12-11T03:28:21.943Z,0.00
2018-12-11T03:29:23.889Z,0.00
2018-12-11T03:30:22.230Z,0.00
2018-12-11T03:31:22.367Z,0.00
2018-12-11T03:32:22.512Z,0.00
2018-12-11T03:33:22.656Z,0.00
2018-12-11T03:34:22.801Z,0.00
2018-12-11T03:35:22.946Z,0.00
2018-12-11T03:36:23.091Z,0.00
2018-12-11T03:37:23.236Z,0.00
2018-12-11T03:38:23.388Z,0.00
2018-12-11T03:39:23.529Z,0.00
2018-12-11T03:40:23.672Z,0.00
2018-12-11T03:41:23.821Z,0.00
2018-12-11T03:42:23.964Z,0.00
2018-12-11T03:43:24.108Z,0.00
2018-12-11T03:44:24.256Z,0.00
2018-12-11T03:45:24.402Z,0.00
2018-12-11T03:46:24.545Z,0.00
2018-12-11T03:47:24.691Z,0.00
2018-12-11T03:48:24.836Z,0.00
2018-12-11T03:49:24.983Z,0.00
2018-12-11T03:50:25.127Z,0.00
2018-12-11T03:51:25.270Z,0.00
2018-12-11T03:52:25.415Z,0.00
2018-12-11T03:53:25.566Z,0.00
2018-12-11T03:54:25.708Z,0.00
2018-12-11T03:55:25.853Z,0.00
2018-12-11T03:56:25.996Z,0.00
2018-12-11T03:57:26.144Z,0.00
2018-12-11T03:58:26.284Z,0.00
2018-12-11T03:59:26.433Z,0.00
2018-12-11T04:00:26.591Z,0.00
2018-12-11T04:01:26.721Z,0.00
2018-12-11T04:02:26.867Z,0.00
2018-12-11T04:03:27.012Z,0.00
2018-12-11T04:04:27.157Z,0.00
2018-12-11T04:05:27.303Z,0.00
2018-12-11T04:06:27.449Z,0.00
2018-12-11T04:07:27.589Z,0.00
2018-12-11T04:08:27.735Z,0.00
2018-12-11T04:09:27.878Z,0.00
2018-12-11T04:10:28.027Z,0.00
2018-12-11T04:11:28.169Z,0.00
2018-12-11T04:12:28.326Z,0.00
2018-12-11T04:13:28.458Z,0.00
2018-12-11T04:14:28.603Z,0.00
2018-12-11T04:15:28.749Z,0.00
2018-12-11T04:16:28.892Z,0.00
2018-12-11T04:17:29.035Z,0.00
2018-12-11T04:18:29.180Z,0.00
2018-12-11T04:19:29.324Z,0.00
2018-12-11T04:20:29.467Z,0.00
2018-12-11T04:21:29.612Z,0.00
2018-12-11T04:22:29.758Z,0.00
2018-12-11T04:23:29.905Z,0.00
2018-12-11T04:24:30.048Z,0.00
2018-12-11T04:25:30.286Z,0.00
2018-12-11T04:26:30.340Z,0.00
2018-12-11T04:27:30.484Z,0.00
2018-12-11T04:28:30.630Z,0.00
2018-12-11T04:29:30.775Z,0.00
2018-12-11T04:30:30.918Z,0.00
2018-12-11T04:31:31.065Z,0.00
2018-12-11T04:32:31.209Z,0.00
2018-12-11T04:33:31.353Z,0.00
2018-12-11T04:34:31.499Z,0.00
2018-12-11T04:35:31.642Z,0.00
2018-12-11T04:36:31.790Z,0.00
2018-12-11T04:37:31.933Z,0.00
2018-12-11T04:38:32.081Z,0.00
2018-12-11T04:39:33.999Z,0.00
2018-12-11T04:40:32.366Z,0.00
2018-12-11T04:41:32.513Z,0.00
2018-12-11T04:42:32.658Z,0.00
2018-12-11T04:43:32.801Z,0.00
2018-12-11T04:44:32.946Z,0.00
2018-12-11T04:45:33.092Z,0.00
2018-12-11T04:46:33.237Z,0.00
2018-12-11T04:47:33.382Z,0.00
2018-12-11T04:48:33.529Z,0.00
2018-12-11T04:49:33.671Z,0.00
2018-12-11T04:50:33.819Z,0.00
2018-12-11T04:51:33.962Z,0.00
2018-12-11T04:52:34.105Z,0.00
2018-12-11T04:53:34.251Z,0.00
2018-12-11T04:54:34.396Z,0.00
2018-12-11T04:55:34.542Z,0.00
2018-12-11T04:56:34.688Z,0.00
2018-12-11T04:57:34.830Z,0.00
2018-12-11T04:58:34.975Z,0.00
2018-12-11T04:59:35.122Z,0.00
2018-12-11T05:00:35.281Z,0.00
2018-12-11T05:01:35.411Z,0.00
2018-12-11T05:02:35.556Z,0.00
2018-12-11T05:03:35.702Z,0.00
2018-12-11T05:04:35.845Z,0.00
2018-12-11T05:05:35.990Z,0.00
2018-12-11T05:06:36.136Z,0.00
2018-12-11T05:07:36.285Z,0.00
2018-12-11T05:08:36.426Z,0.00
2018-12-11T05:09:36.570Z,0.00
2018-12-11T05:10:36.718Z,0.00
2018-12-11T05:11:36.867Z,0.00
2018-12-11T05:12:37.008Z,0.00
2018-12-11T05:13:37.157Z,0.00
2018-12-11T05:14:37.297Z,0.00
2018-12-11T05:15:37.446Z,0.00
2018-12-11T05:16:37.589Z,0.00
2018-12-11T05:17:37.739Z,0.00
2018-12-11T05:18:37.881Z,0.00
2018-12-11T05:19:38.024Z,0.00
2018-12-11T05:20:38.169Z,0.00
2018-12-11T05:21:38.312Z,0.00
2018-12-11T05:22:38.460Z,0.00
2018-12-11T05:23:38.605Z,0.00
2018-12-11T05:24:38.753Z,0.00
2018-12-11T05:25:38.895Z,0.00
2018-12-11T05:26:39.041Z,0.00
2018-12-11T05:27:39.191Z,0.00
2018-12-11T05:28:39.334Z,0.00
2018-12-11T05:29:39.480Z,0.00
2018-12-11T05:30:39.628Z,0.00
2018-12-11T05:31:39.779Z,0.00
2018-12-11T05:32:39.923Z,0.00
2018-12-11T05:33:40.106Z,0.00
2018-12-11T05:34:40.209Z,0.00
2018-12-11T05:35:40.355Z,0.00
2018-12-11T05:36:40.497Z,0.00
2018-12-11T05:37:40.644Z,0.00
2018-12-11T05:38:40.789Z,0.00
2018-12-11T05:39:40.998Z,0.00
2018-12-11T05:40:41.078Z,0.00
2018-12-11T05:41:41.225Z,0.00
2018-12-11T05:42:41.369Z,0.00
2018-12-11T05:43:41.512Z,0.00
2018-12-11T05:44:41.660Z,0.00
2018-12-11T05:45:41.802Z,0.00
2018-12-11T05:46:41.952Z,0.00
2018-12-11T05:47:42.096Z,0.00
2018-12-11T05:48:42.241Z,0.00
2018-12-11T05:49:42.388Z,0.00
2018-12-11T05:50:42.534Z,0.00
2018-12-11T05:51:42.689Z,0.00
2018-12-11T05:52:42.826Z,0.00
2018-12-11T05:53:42.974Z,0.00
2018-12-11T05:54:43.117Z,0.00
2018-12-11T05:55:43.263Z,0.00
2018-12-11T05:56:43.411Z,0.00
2018-12-11T05:57:43.557Z,0.00
2018-12-11T05:58:43.700Z,0.00
2018-12-11T05:59:43.853Z,0.00
2018-12-11T06:00:43.995Z,0.00
2018-12-11T06:01:44.139Z,0.00
2018-12-11T06:02:44.284Z,0.00
2018-12-11T06:03:44.430Z,0.00
2018-12-11T06:04:44.574Z,0.00
2018-12-11T06:05:44.718Z,0.00
2018-12-11T06:06:44.863Z,0.00
2018-12-11T06:07:45.007Z,0.00
2018-12-11T06:08:45.153Z,0.00
2018-12-11T06:09:45.298Z,0.00
2018-12-11T06:10:45.448Z,0.00
2018-12-11T06:11:45.594Z,0.00
2018-12-11T06:12:45.738Z,0.00
2018-12-11T06:13:45.882Z,0.00
2018-12-11T06:14:46.029Z,0.00
2018-12-11T06:15:46.179Z,0.00
2018-12-11T06:16:46.320Z,0.00
2018-12-11T06:17:46.465Z,0.00
2018-12-11T06:18:46.608Z,0.00
2018-12-11T06:19:46.752Z,0.00
2018-12-11T06:20:46.896Z,0.00
2018-12-11T06:21:47.042Z,0.00
2018-12-11T06:22:47.189Z,0.00
2018-12-11T06:23:47.327Z,0.00
2018-12-11T06:24:47.484Z,0.00
2018-12-11T06:25:47.629Z,0.00
2018-12-11T06:26:47.773Z,0.00
2018-12-11T06:27:47.919Z,0.00
2018-12-11T06:28:48.066Z,0.00
2018-12-11T06:29:48.211Z,0.00
2018-12-11T06:30:48.355Z,0.00
2018-12-11T06:31:48.499Z,0.00
2018-12-11T06:32:48.645Z,0.00
2018-12-11T06:33:48.790Z,0.00
2018-12-11T06:34:48.936Z,0.00
2018-12-11T06:35:49.083Z,0.00
2018-12-11T06:36:49.227Z,0.00
2018-12-11T06:37:49.371Z,0.00
2018-12-11T06:38:49.516Z,0.00
2018-12-11T06:39:49.668Z,0.00
2018-12-11T06:40:49.809Z,0.00
2018-12-11T06:41:49.951Z,0.00
2018-12-11T06:42:50.102Z,0.00
2018-12-11T06:43:50.242Z,0.00
2018-12-11T06:44:50.390Z,0.00
2018-12-11T06:45:50.535Z,0.00
2018-12-11T06:46:51.965Z,0.00
2018-12-11T06:47:50.825Z,0.00
2018-12-11T06:48:50.970Z,0.00
2018-12-11T06:49:51.116Z,0.00
2018-12-11T06:50:51.263Z,0.00
2018-12-11T06:51:51.408Z,0.00
2018-12-11T06:52:51.552Z,0.00
2018-12-11T06:53:51.701Z,0.00
2018-12-11T06:54:51.849Z,0.00
2018-12-11T06:55:52.000Z,0.00
2018-12-11T06:56:52.177Z,0.00
2018-12-11T06:57:52.285Z,0.00
2018-12-11T06:58:52.431Z,0.00
2018-12-11T06:59:52.579Z,0.00
2018-12-11T07:00:52.722Z,0.00
2018-12-11T07:01:52.900Z,0.00
2018-12-11T07:02:53.014Z,0.00
2018-12-11T07:03:53.156Z,0.00
2018-12-11T07:04:53.303Z,0.00
2018-12-11T07:05:53.447Z,0.00
2018-12-11T07:06:53.594Z,0.00
2018-12-11T07:07:53.739Z,0.00
2018-12-11T07:08:53.884Z,0.00
2018-12-11T07:09:54.027Z,0.00
2018-12-11T07:10:54.171Z,0.00
2018-12-11T07:11:54.315Z,0.00
2018-12-11T07:12:54.463Z,0.00
2018-12-11T07:13:54.605Z,0.00
2018-12-11T07:14:54.753Z,0.00
2018-12-11T07:15:54.899Z,5.63
2018-12-11T07:16:55.045Z,5.63
2018-12-11T07:17:55.190Z,5.63
2018-12-11T07:18:55.338Z,5.63
2018-12-11T07:19:55.484Z,11.25
2018-12-11T07:20:55.629Z,11.25
2018-12-11T07:21:55.774Z,11.25
2018-12-11T07:22:55.923Z,11.25
2018-12-11T07:23:56.064Z,11.25
2018-12-11T07:24:56.211Z,11.25
2018-12-11T07:25:56.359Z,11.25
2018-12-11T07:26:56.504Z,11.25
2018-12-11T07:27:56.651Z,11.25
2018-12-11T07:28:56.796Z,11.25
2018-12-11T07:29:56.940Z,11.25
2018-12-11T07:30:57.088Z,16.88
2018-12-11T07:31:57.232Z,16.88
2018-12-11T07:32:57.380Z,22.50
2018-12-11T07:33:57.526Z,22.50
2018-12-11T07:34:57.669Z,28.13
2018-12-11T07:35:57.814Z,28.13
2018-12-11T07:36:57.961Z,22.50
2018-12-11T07:37:58.105Z,22.50
2018-12-11T07:38:58.252Z,28.13
2018-12-11T07:39:58.397Z,28.13
2018-12-11T07:40:58.541Z,28.13
2018-12-11T07:41:58.687Z,28.13
2018-12-11T07:42:58.831Z,28.13
2018-12-11T07:43:58.978Z,28.13
2018-12-11T07:44:59.124Z,28.13
2018-12-11T07:45:59.267Z,22.50
2018-12-11T07:46:59.413Z,16.88
2018-12-11T07:47:59.556Z,11.25
2018-12-11T07:48:59.704Z,11.25
2018-12-11T07:49:59.846Z,11.25
2018-12-11T07:50:59.991Z,11.25
2018-12-11T07:52:00.135Z,11.25
2018-12-11T07:53:00.279Z,16.88
2018-12-11T07:54:00.427Z,16.88
2018-12-11T07:55:00.569Z,16.88
2018-12-11T07:56:00.713Z,22.50
2018-12-11T07:57:00.860Z,22.50
2018-12-11T07:58:01.006Z,28.13
2018-12-11T07:59:01.150Z,33.75
2018-12-11T08:00:01.297Z,28.13
2018-12-11T08:01:01.444Z,28.13
2018-12-11T08:02:01.588Z,28.13
2018-12-11T08:03:01.753Z,22.50
2018-12-11T08:04:01.894Z,28.13
2018-12-11T08:05:02.038Z,28.13
2018-12-11T08:06:02.164Z,33.75
2018-12-11T08:07:02.357Z,39.38
2018-12-11T08:08:02.455Z,50.63
2018-12-11T08:09:02.601Z,56.25
2018-12-11T08:10:02.744Z,56.25
2018-12-11T08:11:02.892Z,56.25
2018-12-11T08:12:08.334Z,67.50
2018-12-11T08:13:03.183Z,73.13
2018-12-11T08:14:03.330Z,78.75
2018-12-11T08:15:03.477Z,90.00
2018-12-11T08:16:03.621Z,90.00
2018-12-11T08:17:03.766Z,90.00
2018-12-11T08:18:03.909Z,90.00
2018-12-11T08:19:04.055Z,95.63
2018-12-11T08:20:04.201Z,95.63
2018-12-11T08:21:04.347Z,101.25
2018-12-11T08:22:04.493Z,106.88
2018-12-11T08:23:04.639Z,112.50
2018-12-11T08:24:04.782Z,112.50
2018-12-11T08:25:04.928Z,118.13
2018-12-11T08:26:05.080Z,118.13
2018-12-11T08:27:05.220Z,118.13
2018-12-11T08:28:05.363Z,106.88
2018-12-11T08:29:05.509Z,95.63
2018-12-11T08:30:05.654Z,90.00
2018-12-11T08:31:05.802Z,101.25
2018-12-11T08:32:05.948Z,106.88
2018-12-11T08:33:06.091Z,106.88
2018-12-11T08:34:06.237Z,90.00
2018-12-11T08:35:06.403Z,78.75
2018-12-11T08:36:06.528Z,73.13
2018-12-11T08:37:06.674Z,78.75
2018-12-11T08:38:06.822Z,90.00
2018-12-11T08:39:06.966Z,101.25
2018-12-11T08:40:07.110Z,106.88
2018-12-11T08:41:07.259Z,112.50
2018-12-11T08:42:07.402Z,106.88
2018-12-11T08:43:07.549Z,106.88
2018-12-11T08:44:07.694Z,90.00
2018-12-11T08:45:07.841Z,78.75
2018-12-11T08:46:07.985Z,73.13
2018-12-11T08:47:08.133Z,73.13
2018-12-11T08:48:08.278Z,78.75
2018-12-11T08:49:08.424Z,90.00
2018-12-11T08:50:08.569Z,106.88
2018-12-11T08:51:08.715Z,123.75
2018-12-11T08:52:08.860Z,129.38
2018-12-11T08:53:09.006Z,123.75
2018-12-11T08:54:09.151Z,118.13
2018-12-11T08:55:09.301Z,112.50
2018-12-11T08:56:09.442Z,101.25
2018-12-11T08:57:09.590Z,95.63
2018-12-11T08:58:09.733Z,95.63
2018-12-11T08:59:09.884Z,95.63
2018-12-11T09:00:10.029Z,90.00
2018-12-11T09:01:10.184Z,78.75
2018-12-11T09:02:10.327Z,90.00
2018-12-11T09:03:10.469Z,84.38
2018-12-11T09:04:10.619Z,78.75
2018-12-11T09:05:10.763Z,84.38
2018-12-11T09:06:10.907Z,90.00
2018-12-11T09:07:11.050Z,95.63
2018-12-11T09:08:11.201Z,84.38
2018-12-11T09:09:11.342Z,78.75
2018-12-11T09:10:11.884Z,84.38
2018-12-11T09:11:11.635Z,78.75
2018-12-11T09:12:11.779Z,84.38
2018-12-11T09:13:11.925Z,95.63
2018-12-11T09:14:12.071Z,95.63
2018-12-11T09:15:12.215Z,106.88
2018-12-11T09:16:12.371Z,112.50
2018-12-11T09:17:12.509Z,106.88
2018-12-11T09:18:12.656Z,95.63
2018-12-11T09:19:12.801Z,78.75
2018-12-11T09:20:12.946Z,61.88
2018-12-11T09:21:13.090Z,56.25
2018-12-11T09:22:13.239Z,50.63
2018-12-11T09:23:13.385Z,45.00
2018-12-11T09:24:13.532Z,45.00
2018-12-11T09:25:13.677Z,39.38
2018-12-11T09:26:13.821Z,45.00
2018-12-11T09:27:13.966Z,50.63
2018-12-11T09:28:14.114Z,56.25
2018-12-11T09:29:14.256Z,61.88
2018-12-11T09:30:14.403Z,61.88
2018-12-11T09:31:14.548Z,61.88
2018-12-11T09:32:14.693Z,56.25
2018-12-11T09:33:14.838Z,56.25
2018-12-11T09:34:14.986Z,56.25
2018-12-11T09:35:15.131Z,56.25
2018-12-11T09:36:15.277Z,56.25
2018-12-11T09:37:15.423Z,61.88
2018-12-11T09:38:15.568Z,67.50
2018-12-11T09:39:15.713Z,67.50
2018-12-11T09:40:15.860Z,73.13
2018-12-11T09:41:16.007Z,78.75
2018-12-11T09:42:16.150Z,84.38
2018-12-11T09:43:16.298Z,84.38
2018-12-11T09:44:16.440Z,90.00
2018-12-11T09:45:16.589Z,90.00
2018-12-11T09:46:16.737Z,84.38
2018-12-11T09:47:16.882Z,73.13
2018-12-11T09:48:17.030Z,73.13
2018-12-11T09:49:17.175Z,73.13
2018-12-11T09:50:17.322Z,67.50
2018-12-11T09:51:17.890Z,73.13
2018-12-11T09:52:17.616Z,73.13
2018-12-11T09:53:17.757Z,73.13
2018-12-11T09:54:17.902Z,78.75
2018-12-11T09:55:18.048Z,78.75
2018-12-11T09:56:18.209Z,73.13
2018-12-11T09:57:18.341Z,56.25
2018-12-11T09:58:18.487Z,45.00
2018-12-11T09:59:23.368Z,39.38
2018-12-11T10:00:19.240Z,50.63
2018-12-11T10:01:18.923Z,50.63
2018-12-11T10:02:19.069Z,56.25
2018-12-11T10:03:19.216Z,50.63
2018-12-11T10:04:19.357Z,50.63
2018-12-11T10:05:19.505Z,56.25
2018-12-11T10:06:19.650Z,56.25
2018-12-11T10:07:19.795Z,61.88
2018-12-11T10:08:19.942Z,56.25
2018-12-11T10:09:20.086Z,50.63
2018-12-11T10:10:20.234Z,61.88
2018-12-11T10:11:20.379Z,78.75
2018-12-11T10:12:20.524Z,73.13
2018-12-11T10:13:20.669Z,78.75
2018-12-11T10:14:20.817Z,95.63
2018-12-11T10:15:20.962Z,106.88
2018-12-11T10:16:21.107Z,106.88
2018-12-11T10:17:21.254Z,123.75
2018-12-11T10:18:21.399Z,146.25
2018-12-11T10:19:21.541Z,135.00
2018-12-11T10:20:21.690Z,123.75
2018-12-11T10:21:21.833Z,129.38
2018-12-11T10:22:21.979Z,106.88
2018-12-11T10:23:22.129Z,90.00
2018-12-11T10:24:22.271Z,78.75
2018-12-11T10:25:22.420Z,78.75
2018-12-11T10:26:22.562Z,78.75
2018-12-11T10:27:22.707Z,90.00
2018-12-11T10:28:22.861Z,106.88
2018-12-11T10:29:23.001Z,129.38
2018-12-11T10:30:23.148Z,140.63
2018-12-11T10:31:23.293Z,157.50
2018-12-11T10:32:23.439Z,157.50
2018-12-11T10:33:23.584Z,135.00
2018-12-11T10:34:23.730Z,112.50
2018-12-11T10:35:23.873Z,106.88
2018-12-11T10:36:24.023Z,101.25
2018-12-11T10:37:24.166Z,95.63
2018-12-11T10:38:24.310Z,90.00
2018-12-11T10:39:24.457Z,90.00
2018-12-11T10:40:24.603Z,106.88
2018-12-11T10:41:24.750Z,112.50
2018-12-11T10:42:24.894Z,118.13
2018-12-11T10:43:25.040Z,118.13
2018-12-11T10:44:25.195Z,118.13
2018-12-11T10:45:25.332Z,112.50
2018-12-11T10:46:25.474Z,112.50
2018-12-11T10:47:25.620Z,112.50
2018-12-11T10:48:25.765Z,95.63
2018-12-11T10:49:25.909Z,90.00
2018-12-11T10:50:26.056Z,90.00
2018-12-11T10:51:26.203Z,78.75
2018-12-11T10:52:26.349Z,78.75
2018-12-11T10:53:26.496Z,95.63
2018-12-11T10:54:26.644Z,101.25
2018-12-11T10:55:26.788Z,84.38
2018-12-11T10:56:26.932Z,90.00
2018-12-11T10:57:27.081Z,123.75
2018-12-11T10:58:27.227Z,140.63
2018-12-11T10:59:27.373Z,129.38
2018-12-11T11:00:27.520Z,123.75
2018-12-11T11:01:27.668Z,118.13
2018-12-11T11:02:27.813Z,118.13
2018-12-11T11:03:27.958Z,123.75
2018-12-11T11:04:28.105Z,112.50
2018-12-11T11:05:28.320Z,95.63
2018-12-11T11:06:28.396Z,78.75
2018-12-11T11:07:28.542Z,73.13
2018-12-11T11:08:28.687Z,78.75
2018-12-11T11:09:28.852Z,90.00
2018-12-11T11:10:28.989Z,101.25
2018-12-11T11:11:29.139Z,95.63
2018-12-11T11:12:29.274Z,78.75
2018-12-11T11:13:29.428Z,67.50
2018-12-11T11:14:29.575Z,67.50
2018-12-11T11:15:29.720Z,67.50
2018-12-11T11:16:29.857Z,67.50
2018-12-11T11:17:30.004Z,67.50
2018-12-11T11:18:30.151Z,67.50
2018-12-11T11:19:30.299Z,67.50
2018-12-11T11:20:30.451Z,73.13
2018-12-11T11:21:30.594Z,78.75
2018-12-11T11:22:30.737Z,67.50
2018-12-11T11:23:30.883Z,56.25
2018-12-11T11:24:31.029Z,56.25
2018-12-11T11:25:31.175Z,61.88
2018-12-11T11:26:31.323Z,61.88
2018-12-11T11:27:31.469Z,56.25
2018-12-11T11:28:31.615Z,50.63
2018-12-11T11:29:31.760Z,39.38
2018-12-11T11:30:31.908Z,39.38
2018-12-11T11:31:32.052Z,45.00
2018-12-11T11:32:32.199Z,39.38
2018-12-11T11:33:32.347Z,39.38
2018-12-11T11:34:32.491Z,45.00
2018-12-11T11:35:32.640Z,56.25
2018-12-11T11:36:32.784Z,78.75
2018-12-11T11:37:32.930Z,95.63
2018-12-11T11:38:33.079Z,101.25
2018-12-11T11:39:33.224Z,101.25
2018-12-11T11:40:33.368Z,123.75
2018-12-11T11:41:33.516Z,140.63
2018-12-11T11:42:33.660Z,146.25
2018-12-11T11:43:33.810Z,151.88
2018-12-11T11:44:33.955Z,157.50
2018-12-11T11:45:34.100Z,174.38
2018-12-11T11:46:34.247Z,196.88
2018-12-11T11:47:34.392Z,185.63
2018-12-11T11:48:34.541Z,196.88
2018-12-11T11:49:34.685Z,196.88
2018-12-11T11:50:34.834Z,191.25
2018-12-11T11:51:34.979Z,191.25
2018-12-11T11:52:35.126Z,191.25
2018-12-11T11:53:35.272Z,185.63
2018-12-11T11:54:35.423Z,185.63
2018-12-11T11:55:35.565Z,191.25
2018-12-11T11:56:35.710Z,185.63
2018-12-11T11:57:35.858Z,191.25
2018-12-11T11:58:36.006Z,213.75
2018-12-11T11:59:36.150Z,219.38
2018-12-11T12:00:36.298Z,213.75
2018-12-11T12:01:36.449Z,202.50
2018-12-11T12:02:36.610Z,202.50
2018-12-11T12:03:36.751Z,191.25
2018-12-11T12:04:36.900Z,185.63
2018-12-11T12:05:37.047Z,196.88
2018-12-11T12:06:37.191Z,196.88
2018-12-11T12:07:37.338Z,202.50
2018-12-11T12:08:37.484Z,208.13
2018-12-11T12:09:37.631Z,202.50
2018-12-11T12:10:37.775Z,191.25
2018-12-11T12:11:37.922Z,180.00
2018-12-11T12:12:38.071Z,174.38
2018-12-11T12:13:38.215Z,157.50
2018-12-11T12:14:38.362Z,157.50
2018-12-11T12:15:38.508Z,146.25
2018-12-11T12:16:38.654Z,140.63
2018-12-11T12:17:38.803Z,129.38
2018-12-11T12:18:38.949Z,140.63
2018-12-11T12:19:39.101Z,151.88
2018-12-11T12:20:39.242Z,157.50
2018-12-11T12:21:39.388Z,163.13
2018-12-11T12:22:39.537Z,174.38
2018-12-11T12:23:39.689Z,180.00
2018-12-11T12:24:39.836Z,185.63
2018-12-11T12:25:39.987Z,191.25
2018-12-11T12:26:40.127Z,191.25
2018-12-11T12:27:40.275Z,196.88
2018-12-11T12:28:40.429Z,202.50
2018-12-11T12:29:40.565Z,208.13
2018-12-11T12:30:40.716Z,208.13
2018-12-11T12:31:40.859Z,202.50
2018-12-11T12:32:41.006Z,191.25
2018-12-11T12:33:41.154Z,180.00
2018-12-11T12:34:41.300Z,174.38
2018-12-11T12:35:41.451Z,185.63
2018-12-11T12:36:41.597Z,208.13
2018-12-11T12:37:41.743Z,225.00
2018-12-11T12:38:41.894Z,236.25
2018-12-11T12:39:42.046Z,236.25
2018-12-11T12:40:42.191Z,241.88
2018-12-11T12:41:42.339Z,236.25
2018-12-11T12:42:42.487Z,230.63
2018-12-11T12:43:42.637Z,225.00
2018-12-11T12:44:42.783Z,213.75
2018-12-11T12:45:42.933Z,208.13
2018-12-11T12:46:43.082Z,208.13
2018-12-11T12:47:43.227Z,213.75
2018-12-11T12:48:43.375Z,213.75
2018-12-11T12:49:43.522Z,208.13
2018-12-11T12:50:43.670Z,202.50
2018-12-11T12:51:43.818Z,196.88
2018-12-11T12:52:43.965Z,191.25
2018-12-11T12:53:44.116Z,191.25
2018-12-11T12:54:44.261Z,202.50
2018-12-11T12:55:44.408Z,208.13
2018-12-11T12:56:44.557Z,202.50
2018-12-11T12:57:44.705Z,208.13
2018-12-11T12:58:44.851Z,208.13
2018-12-11T12:59:44.999Z,213.75
2018-12-11T13:00:45.151Z,213.75
2018-12-11T13:01:45.292Z,202.50
2018-12-11T13:02:49.951Z,213.75
2018-12-11T13:03:45.588Z,196.88
2018-12-11T13:04:45.736Z,196.88